sensor_id;sensor_type;location;lat;lon;timestamp;P1;durP1;ratioP1;P2;durP2;ratioP2
57846;SDS011;43675;50.030;21.952;2022-10-04T00:00:58;20.05;;;18.00;;
57846;SDS011;43675;50.030;21.952;2022-10-04T00:03:33;20.25;;;18.17;;
57846;SDS011;43675;50.030;21.952;2022-10-04T00:06:04;20.95;;;18.85;;
57846;SDS011;43675;50.030;21.952;2022-10-04T00:08:52;19.75;;;18.20;;
57846;SDS011;43675;50.030;21.952;2022-10-04T00:11:28;20.25;;;18.45;;
57846;SDS011;43675;50.030;21.952;2022-10-04T00:13:57;19.82;;;18.07;;
57846;SDS011;43675;50.030;21.952;2022-10-04T00:16:33;20.25;;;18.45;;
57846;SDS011;43675;50.030;21.952;2022-10-04T00:24:27;20.23;;;18.15;;
57846;SDS011;43675;50.030;21.952;2022-10-04T00:27:09;19.05;;;17.10;;
57846;SDS011;43675;50.030;21.952;2022-10-04T00:29:37;19.23;;;17.32;;
57846;SDS011;43675;50.030;21.952;2022-10-04T00:34:45;19.17;;;17.35;;
57846;SDS011;43675;50.030;21.952;2022-10-04T00:37:13;20.48;;;18.12;;
57846;SDS011;43675;50.030;21.952;2022-10-04T00:39:58;20.48;;;18.20;;
57846;SDS011;43675;50.030;21.952;2022-10-04T00:45:23;19.02;;;17.23;;
57846;SDS011;43675;50.030;21.952;2022-10-04T00:47:59;20.02;;;17.85;;
57846;SDS011;43675;50.030;21.952;2022-10-04T00:50:33;20.48;;;18.35;;
57846;SDS011;43675;50.030;21.952;2022-10-04T00:53:11;19.98;;;18.00;;
57846;SDS011;43675;50.030;21.952;2022-10-04T00:55:41;19.23;;;17.35;;
57846;SDS011;43675;50.030;21.952;2022-10-04T00:58:19;20.05;;;18.05;;
57846;SDS011;43675;50.030;21.952;2022-10-04T01:00:50;19.80;;;17.87;;
57846;SDS011;43675;50.030;21.952;2022-10-04T01:03:20;20.05;;;18.17;;
57846;SDS011;43675;50.030;21.952;2022-10-04T01:05:49;21.50;;;19.40;;
57846;SDS011;43675;50.030;21.952;2022-10-04T01:08:22;30.20;;;26.95;;
57846;SDS011;43675;50.030;21.952;2022-10-04T01:10:49;34.27;;;30.92;;
57846;SDS011;43675;50.030;21.952;2022-10-04T01:13:19;34.43;;;31.17;;
57846;SDS011;43675;50.030;21.952;2022-10-04T01:18:43;37.80;;;33.85;;
57846;SDS011;43675;50.030;21.952;2022-10-04T01:28:56;38.80;;;34.67;;
57846;SDS011;43675;50.030;21.952;2022-10-04T01:31:28;38.98;;;34.90;;
57846;SDS011;43675;50.030;21.952;2022-10-04T01:33:55;38.50;;;34.35;;
57846;SDS011;43675;50.030;21.952;2022-10-04T01:36:21;38.70;;;34.50;;
57846;SDS011;43675;50.030;21.952;2022-10-04T01:38:48;38.73;;;34.73;;
57846;SDS011;43675;50.030;21.952;2022-10-04T01:41:14;38.45;;;34.38;;
57846;SDS011;43675;50.030;21.952;2022-10-04T01:43:44;39.65;;;35.55;;
57846;SDS011;43675;50.030;21.952;2022-10-04T01:46:14;40.15;;;35.85;;
57846;SDS011;43675;50.030;21.952;2022-10-04T01:48:42;39.08;;;35.25;;
57846;SDS011;43675;50.030;21.952;2022-10-04T01:51:24;41.90;;;36.05;;
57846;SDS011;43675;50.030;21.952;2022-10-04T01:53:53;40.05;;;35.85;;
57846;SDS011;43675;50.030;21.952;2022-10-04T01:59:05;40.20;;;35.85;;
57846;SDS011;43675;50.030;21.952;2022-10-04T02:01:38;41.13;;;36.80;;
57846;SDS011;43675;50.030;21.952;2022-10-04T02:04:11;41.50;;;37.20;;
57846;SDS011;43675;50.030;21.952;2022-10-04T02:06:39;40.95;;;36.55;;
57846;SDS011;43675;50.030;21.952;2022-10-04T02:09:12;41.10;;;36.83;;
57846;SDS011;43675;50.030;21.952;2022-10-04T02:11:36;41.30;;;36.83;;
57846;SDS011;43675;50.030;21.952;2022-10-04T02:14:04;39.35;;;35.25;;
57846;SDS011;43675;50.030;21.952;2022-10-04T02:16:34;39.05;;;35.17;;
57846;SDS011;43675;50.030;21.952;2022-10-04T02:19:09;39.40;;;35.28;;
57846;SDS011;43675;50.030;21.952;2022-10-04T02:21:36;38.30;;;34.48;;
57846;SDS011;43675;50.030;21.952;2022-10-04T02:24:03;38.70;;;34.15;;
57846;SDS011;43675;50.030;21.952;2022-10-04T02:26:31;37.03;;;33.08;;
57846;SDS011;43675;50.030;21.952;2022-10-04T02:28:57;37.42;;;33.05;;
57846;SDS011;43675;50.030;21.952;2022-10-04T02:31:23;37.58;;;33.67;;
57846;SDS011;43675;50.030;21.952;2022-10-04T02:33:50;35.95;;;32.35;;
57846;SDS011;43675;50.030;21.952;2022-10-04T02:36:22;31.55;;;28.35;;
57846;SDS011;43675;50.030;21.952;2022-10-04T02:39:08;29.87;;;27.02;;
57846;SDS011;43675;50.030;21.952;2022-10-04T02:49:32;28.00;;;24.15;;
57846;SDS011;43675;50.030;21.952;2022-10-04T02:52:11;26.68;;;24.05;;
57846;SDS011;43675;50.030;21.952;2022-10-04T02:54:43;27.20;;;23.73;;
57846;SDS011;43675;50.030;21.952;2022-10-04T02:57:15;24.12;;;21.87;;
57846;SDS011;43675;50.030;21.952;2022-10-04T02:59:43;26.52;;;22.73;;
57846;SDS011;43675;50.030;21.952;2022-10-04T03:02:26;25.30;;;22.80;;
57846;SDS011;43675;50.030;21.952;2022-10-04T03:04:55;27.90;;;23.10;;
57846;SDS011;43675;50.030;21.952;2022-10-04T03:07:23;25.35;;;22.85;;
57846;SDS011;43675;50.030;21.952;2022-10-04T03:09:50;25.37;;;22.73;;
57846;SDS011;43675;50.030;21.952;2022-10-04T03:12:17;27.82;;;24.02;;
57846;SDS011;43675;50.030;21.952;2022-10-04T03:14:43;33.78;;;24.37;;
57846;SDS011;43675;50.030;21.952;2022-10-04T03:17:09;32.17;;;23.57;;
57846;SDS011;43675;50.030;21.952;2022-10-04T03:19:43;28.50;;;23.55;;
57846;SDS011;43675;50.030;21.952;2022-10-04T03:22:10;27.15;;;23.10;;
57846;SDS011;43675;50.030;21.952;2022-10-04T03:24:38;25.88;;;22.77;;
57846;SDS011;43675;50.030;21.952;2022-10-04T03:27:06;24.87;;;22.22;;
57846;SDS011;43675;50.030;21.952;2022-10-04T03:29:35;24.50;;;21.95;;
57846;SDS011;43675;50.030;21.952;2022-10-04T03:32:04;25.17;;;22.30;;
57846;SDS011;43675;50.030;21.952;2022-10-04T03:34:34;24.95;;;22.40;;
57846;SDS011;43675;50.030;21.952;2022-10-04T03:37:05;25.23;;;22.70;;
57846;SDS011;43675;50.030;21.952;2022-10-04T03:39:35;25.17;;;22.60;;
57846;SDS011;43675;50.030;21.952;2022-10-04T03:42:10;22.40;;;20.20;;
57846;SDS011;43675;50.030;21.952;2022-10-04T03:44:49;21.00;;;19.23;;
57846;SDS011;43675;50.030;21.952;2022-10-04T03:47:15;21.20;;;19.40;;
57846;SDS011;43675;50.030;21.952;2022-10-04T03:49:48;22.40;;;20.08;;
57846;SDS011;43675;50.030;21.952;2022-10-04T03:52:24;21.50;;;19.65;;
57846;SDS011;43675;50.030;21.952;2022-10-04T03:54:54;22.05;;;20.15;;
57846;SDS011;43675;50.030;21.952;2022-10-04T03:57:23;22.42;;;20.37;;
57846;SDS011;43675;50.030;21.952;2022-10-04T03:59:49;21.95;;;19.80;;
57846;SDS011;43675;50.030;21.952;2022-10-04T04:05:11;20.80;;;19.15;;
57846;SDS011;43675;50.030;21.952;2022-10-04T04:08:24;21.65;;;19.62;;
57846;SDS011;43675;50.030;21.952;2022-10-04T04:10:41;22.82;;;20.65;;
57846;SDS011;43675;50.030;21.952;2022-10-04T04:13:22;22.52;;;20.50;;
57846;SDS011;43675;50.030;21.952;2022-10-04T04:15:46;21.37;;;19.57;;
57846;SDS011;43675;50.030;21.952;2022-10-04T04:18:17;22.10;;;20.10;;
57846;SDS011;43675;50.030;21.952;2022-10-04T04:20:53;21.33;;;18.90;;
57846;SDS011;43675;50.030;21.952;2022-10-04T04:23:31;21.02;;;18.23;;
57846;SDS011;43675;50.030;21.952;2022-10-04T04:29:08;21.25;;;19.00;;
57846;SDS011;43675;50.030;21.952;2022-10-04T04:34:32;20.95;;;18.77;;
57846;SDS011;43675;50.030;21.952;2022-10-04T04:37:01;22.15;;;19.82;;
57846;SDS011;43675;50.030;21.952;2022-10-04T04:39:29;24.52;;;20.15;;
57846;SDS011;43675;50.030;21.952;2022-10-04T04:41:56;22.27;;;20.27;;
57846;SDS011;43675;50.030;21.952;2022-10-04T04:44:22;22.40;;;20.43;;
57846;SDS011;43675;50.030;21.952;2022-10-04T04:46:50;22.07;;;19.95;;
57846;SDS011;43675;50.030;21.952;2022-10-04T04:49:16;21.45;;;19.45;;
57846;SDS011;43675;50.030;21.952;2022-10-04T04:51:49;22.27;;;20.17;;
57846;SDS011;43675;50.030;21.952;2022-10-04T04:54:17;21.25;;;19.07;;
57846;SDS011;43675;50.030;21.952;2022-10-04T04:56:49;22.62;;;20.27;;
57846;SDS011;43675;50.030;21.952;2022-10-04T04:59:17;24.45;;;20.77;;
57846;SDS011;43675;50.030;21.952;2022-10-04T05:01:52;23.30;;;20.88;;
57846;SDS011;43675;50.030;21.952;2022-10-04T05:04:21;22.55;;;20.25;;
57846;SDS011;43675;50.030;21.952;2022-10-04T05:06:57;22.40;;;20.05;;
57846;SDS011;43675;50.030;21.952;2022-10-04T05:09:30;24.92;;;20.15;;
57846;SDS011;43675;50.030;21.952;2022-10-04T05:12:02;21.55;;;19.35;;
57846;SDS011;43675;50.030;21.952;2022-10-04T05:14:36;21.85;;;19.35;;
57846;SDS011;43675;50.030;21.952;2022-10-04T05:17:02;21.05;;;18.75;;
57846;SDS011;43675;50.030;21.952;2022-10-04T05:19:36;20.55;;;18.70;;
57846;SDS011;43675;50.030;21.952;2022-10-04T05:22:09;20.43;;;18.65;;
57846;SDS011;43675;50.030;21.952;2022-10-04T05:24:50;19.45;;;17.57;;
57846;SDS011;43675;50.030;21.952;2022-10-04T05:27:26;19.57;;;17.67;;
57846;SDS011;43675;50.030;21.952;2022-10-04T05:30:12;21.55;;;17.55;;
57846;SDS011;43675;50.030;21.952;2022-10-04T05:33:04;20.00;;;17.60;;
57846;SDS011;43675;50.030;21.952;2022-10-04T05:35:42;19.05;;;17.07;;
57846;SDS011;43675;50.030;21.952;2022-10-04T05:41:07;19.25;;;17.45;;
57846;SDS011;43675;50.030;21.952;2022-10-04T05:48:41;19.52;;;17.30;;
57846;SDS011;43675;50.030;21.952;2022-10-04T05:51:17;19.10;;;17.35;;
57846;SDS011;43675;50.030;21.952;2022-10-04T05:53:45;18.70;;;16.95;;
57846;SDS011;43675;50.030;21.952;2022-10-04T06:10:18;18.37;;;16.57;;
57846;SDS011;43675;50.030;21.952;2022-10-04T06:12:51;18.00;;;16.32;;
57846;SDS011;43675;50.030;21.952;2022-10-04T06:15:39;17.55;;;16.15;;
57846;SDS011;43675;50.030;21.952;2022-10-04T06:23:47;18.70;;;17.02;;
57846;SDS011;43675;50.030;21.952;2022-10-04T06:26:34;18.12;;;16.52;;
57846;SDS011;43675;50.030;21.952;2022-10-04T06:29:02;18.60;;;16.73;;
57846;SDS011;43675;50.030;21.952;2022-10-04T06:31:41;18.85;;;17.12;;
57846;SDS011;43675;50.030;21.952;2022-10-04T06:34:09;18.48;;;16.20;;
57846;SDS011;43675;50.030;21.952;2022-10-04T06:44:47;18.67;;;16.77;;
57846;SDS011;43675;50.030;21.952;2022-10-04T06:49:51;19.40;;;17.70;;
57846;SDS011;43675;50.030;21.952;2022-10-04T06:55:04;18.27;;;16.45;;
57846;SDS011;43675;50.030;21.952;2022-10-04T06:57:52;18.95;;;17.05;;
57846;SDS011;43675;50.030;21.952;2022-10-04T07:00:30;18.48;;;16.67;;
57846;SDS011;43675;50.030;21.952;2022-10-04T07:03:00;17.95;;;16.45;;
57846;SDS011;43675;50.030;21.952;2022-10-04T07:05:32;17.27;;;15.78;;
57846;SDS011;43675;50.030;21.952;2022-10-04T07:10:45;18.80;;;16.30;;
57846;SDS011;43675;50.030;21.952;2022-10-04T07:16:42;17.27;;;15.60;;
57846;SDS011;43675;50.030;21.952;2022-10-04T07:19:23;17.77;;;16.20;;
57846;SDS011;43675;50.030;21.952;2022-10-04T07:24:48;18.37;;;16.57;;
57846;SDS011;43675;50.030;21.952;2022-10-04T07:27:29;17.35;;;15.85;;
57846;SDS011;43675;50.030;21.952;2022-10-04T07:30:17;17.15;;;15.43;;
57846;SDS011;43675;50.030;21.952;2022-10-04T07:32:47;19.57;;;15.60;;
57846;SDS011;43675;50.030;21.952;2022-10-04T07:35:27;17.37;;;15.83;;
57846;SDS011;43675;50.030;21.952;2022-10-04T07:40:42;18.17;;;16.27;;
57846;SDS011;43675;50.030;21.952;2022-10-04T07:43:10;17.55;;;15.80;;
57846;SDS011;43675;50.030;21.952;2022-10-04T07:45:38;17.92;;;16.37;;
57846;SDS011;43675;50.030;21.952;2022-10-04T07:48:11;18.23;;;16.32;;
57846;SDS011;43675;50.030;21.952;2022-10-04T07:50:56;18.35;;;16.35;;
57846;SDS011;43675;50.030;21.952;2022-10-04T07:53:26;17.92;;;16.23;;
57846;SDS011;43675;50.030;21.952;2022-10-04T07:55:55;18.50;;;16.60;;
57846;SDS011;43675;50.030;21.952;2022-10-04T08:14:49;17.80;;;15.90;;
57846;SDS011;43675;50.030;21.952;2022-10-04T08:17:40;16.80;;;15.15;;
57846;SDS011;43675;50.030;21.952;2022-10-04T08:23:00;18.02;;;16.48;;
57846;SDS011;43675;50.030;21.952;2022-10-04T08:25:40;17.60;;;15.78;;
57846;SDS011;43675;50.030;21.952;2022-10-04T08:28:18;17.70;;;15.93;;
57846;SDS011;43675;50.030;21.952;2022-10-04T08:30:51;17.77;;;16.05;;
57846;SDS011;43675;50.030;21.952;2022-10-04T08:36:19;17.35;;;15.75;;
57846;SDS011;43675;50.030;21.952;2022-10-04T08:38:58;17.70;;;16.07;;
57846;SDS011;43675;50.030;21.952;2022-10-04T08:53:01;17.90;;;16.20;;
57846;SDS011;43675;50.030;21.952;2022-10-04T09:15:11;18.20;;;16.00;;
57846;SDS011;43675;50.030;21.952;2022-10-04T09:37:46;16.55;;;15.20;;
57846;SDS011;43675;50.030;21.952;2022-10-04T09:45:57;17.75;;;16.20;;
57846;SDS011;43675;50.030;21.952;2022-10-04T09:48:43;16.35;;;14.87;;
57846;SDS011;43675;50.030;21.952;2022-10-04T09:51:29;17.77;;;15.83;;
57846;SDS011;43675;50.030;21.952;2022-10-04T09:59:25;17.50;;;15.80;;
57846;SDS011;43675;50.030;21.952;2022-10-04T10:02:15;18.02;;;16.32;;
57846;SDS011;43675;50.030;21.952;2022-10-04T10:07:51;18.77;;;17.02;;
57846;SDS011;43675;50.030;21.952;2022-10-04T10:15:59;18.52;;;17.02;;
57846;SDS011;43675;50.030;21.952;2022-10-04T10:21:03;18.82;;;17.17;;
57846;SDS011;43675;50.030;21.952;2022-10-04T10:28:56;17.35;;;15.75;;
57846;SDS011;43675;50.030;21.952;2022-10-04T10:51:17;17.12;;;15.83;;
57846;SDS011;43675;50.030;21.952;2022-10-04T11:05:05;17.07;;;15.68;;
57846;SDS011;43675;50.030;21.952;2022-10-04T11:18:17;17.92;;;15.95;;
57846;SDS011;43675;50.030;21.952;2022-10-04T11:38:18;16.95;;;15.50;;
57846;SDS011;43675;50.030;21.952;2022-10-04T11:40:58;17.42;;;15.75;;
57846;SDS011;43675;50.030;21.952;2022-10-04T11:49:05;17.82;;;16.02;;
57846;SDS011;43675;50.030;21.952;2022-10-04T11:51:46;16.32;;;14.90;;
57846;SDS011;43675;50.030;21.952;2022-10-04T12:02:27;17.87;;;16.37;;
57846;SDS011;43675;50.030;21.952;2022-10-04T12:05:17;19.15;;;17.15;;
57846;SDS011;43675;50.030;21.952;2022-10-04T12:07:53;18.60;;;17.00;;
57846;SDS011;43675;50.030;21.952;2022-10-04T12:10:26;16.77;;;15.48;;
57846;SDS011;43675;50.030;21.952;2022-10-04T12:13:08;16.50;;;15.10;;
57846;SDS011;43675;50.030;21.952;2022-10-04T12:18:59;17.10;;;15.65;;
57846;SDS011;43675;50.030;21.952;2022-10-04T12:24:27;17.87;;;16.32;;
57846;SDS011;43675;50.030;21.952;2022-10-04T12:27:14;17.15;;;15.55;;
57846;SDS011;43675;50.030;21.952;2022-10-04T12:40:50;18.00;;;16.50;;
57846;SDS011;43675;50.030;21.952;2022-10-04T12:43:26;18.52;;;16.90;;
57846;SDS011;43675;50.030;21.952;2022-10-04T12:46:11;18.82;;;17.12;;
57846;SDS011;43675;50.030;21.952;2022-10-04T12:54:50;18.12;;;16.62;;
57846;SDS011;43675;50.030;21.952;2022-10-04T12:57:18;18.37;;;16.80;;
57846;SDS011;43675;50.030;21.952;2022-10-04T13:08:39;17.77;;;16.42;;
57846;SDS011;43675;50.030;21.952;2022-10-04T13:11:11;18.57;;;17.02;;
57846;SDS011;43675;50.030;21.952;2022-10-04T13:13:55;18.73;;;17.12;;
57846;SDS011;43675;50.030;21.952;2022-10-04T13:22:09;19.42;;;17.50;;
57846;SDS011;43675;50.030;21.952;2022-10-04T13:30:13;18.92;;;17.25;;
57846;SDS011;43675;50.030;21.952;2022-10-04T13:35:22;18.50;;;16.90;;
57846;SDS011;43675;50.030;21.952;2022-10-04T13:43:15;20.57;;;18.57;;
57846;SDS011;43675;50.030;21.952;2022-10-04T13:51:11;17.50;;;15.95;;
57846;SDS011;43675;50.030;21.952;2022-10-04T13:56:48;18.82;;;16.93;;
57846;SDS011;43675;50.030;21.952;2022-10-04T14:02:26;18.65;;;16.85;;
57846;SDS011;43675;50.030;21.952;2022-10-04T14:34:55;16.80;;;15.50;;
57846;SDS011;43675;50.030;21.952;2022-10-04T14:38:11;17.10;;;15.45;;
57846;SDS011;43675;50.030;21.952;2022-10-04T14:40:50;16.90;;;15.40;;
57846;SDS011;43675;50.030;21.952;2022-10-04T14:43:52;16.73;;;15.45;;
57846;SDS011;43675;50.030;21.952;2022-10-04T14:58:01;17.92;;;16.40;;
57846;SDS011;43675;50.030;21.952;2022-10-04T15:00:47;18.02;;;16.62;;
57846;SDS011;43675;50.030;21.952;2022-10-04T15:03:37;18.27;;;16.80;;
57846;SDS011;43675;50.030;21.952;2022-10-04T15:09:05;17.85;;;16.30;;
57846;SDS011;43675;50.030;21.952;2022-10-04T15:14:29;18.73;;;17.15;;
57846;SDS011;43675;50.030;21.952;2022-10-04T15:17:08;18.77;;;17.23;;
57846;SDS011;43675;50.030;21.952;2022-10-04T15:19:43;18.50;;;17.00;;
57846;SDS011;43675;50.030;21.952;2022-10-04T15:24:53;18.55;;;16.87;;
57846;SDS011;43675;50.030;21.952;2022-10-04T15:32:49;18.95;;;17.17;;
57846;SDS011;43675;50.030;21.952;2022-10-04T15:38:34;19.40;;;17.67;;
57846;SDS011;43675;50.030;21.952;2022-10-04T15:41:18;19.27;;;17.57;;
57846;SDS011;43675;50.030;21.952;2022-10-04T15:49:12;19.45;;;17.67;;
57846;SDS011;43675;50.030;21.952;2022-10-04T15:54:41;18.80;;;17.17;;
57846;SDS011;43675;50.030;21.952;2022-10-04T15:57:16;18.73;;;17.05;;
57846;SDS011;43675;50.030;21.952;2022-10-04T16:00:02;19.00;;;17.40;;
57846;SDS011;43675;50.030;21.952;2022-10-04T16:02:40;18.75;;;17.05;;
57846;SDS011;43675;50.030;21.952;2022-10-04T16:05:13;18.45;;;16.85;;
57846;SDS011;43675;50.030;21.952;2022-10-04T16:07:56;18.00;;;16.37;;
57846;SDS011;43675;50.030;21.952;2022-10-04T16:13:25;19.15;;;17.15;;
57846;SDS011;43675;50.030;21.952;2022-10-04T16:16:20;18.65;;;16.93;;
57846;SDS011;43675;50.030;21.952;2022-10-04T16:19:01;19.42;;;17.80;;
57846;SDS011;43675;50.030;21.952;2022-10-04T16:21:48;19.92;;;18.32;;
57846;SDS011;43675;50.030;21.952;2022-10-04T16:29:27;19.82;;;17.95;;
57846;SDS011;43675;50.030;21.952;2022-10-04T16:56:30;20.30;;;18.52;;
57846;SDS011;43675;50.030;21.952;2022-10-04T16:58:59;20.40;;;18.57;;
57846;SDS011;43675;50.030;21.952;2022-10-04T17:06:46;22.02;;;19.98;;
57846;SDS011;43675;50.030;21.952;2022-10-04T17:09:31;22.40;;;20.10;;
57846;SDS011;43675;50.030;21.952;2022-10-04T17:17:22;20.30;;;18.27;;
57846;SDS011;43675;50.030;21.952;2022-10-04T17:19:55;19.75;;;18.07;;
57846;SDS011;43675;50.030;21.952;2022-10-04T17:25:12;20.27;;;18.48;;
57846;SDS011;43675;50.030;21.952;2022-10-04T17:27:52;20.88;;;18.85;;
57846;SDS011;43675;50.030;21.952;2022-10-04T17:30:23;19.80;;;18.07;;
57846;SDS011;43675;50.030;21.952;2022-10-04T17:33:05;21.12;;;19.10;;
57846;SDS011;43675;50.030;21.952;2022-10-04T17:38:40;22.13;;;19.32;;
57846;SDS011;43675;50.030;21.952;2022-10-04T17:44:18;19.55;;;17.67;;
57846;SDS011;43675;50.030;21.952;2022-10-04T17:47:18;18.67;;;17.07;;
57846;SDS011;43675;50.030;21.952;2022-10-04T17:52:31;18.48;;;16.67;;
57846;SDS011;43675;50.030;21.952;2022-10-04T17:54:59;18.20;;;16.37;;
57846;SDS011;43675;50.030;21.952;2022-10-04T18:05:24;21.60;;;19.35;;
57846;SDS011;43675;50.030;21.952;2022-10-04T18:07:53;20.35;;;18.37;;
57846;SDS011;43675;50.030;21.952;2022-10-04T18:13:10;22.00;;;19.87;;
57846;SDS011;43675;50.030;21.952;2022-10-04T18:15:40;21.65;;;19.55;;
57846;SDS011;43675;50.030;21.952;2022-10-04T18:18:19;22.02;;;19.73;;
57846;SDS011;43675;50.030;21.952;2022-10-04T18:23:26;20.82;;;18.73;;
57846;SDS011;43675;50.030;21.952;2022-10-04T18:25:55;20.23;;;18.12;;
57846;SDS011;43675;50.030;21.952;2022-10-04T18:28:22;20.80;;;18.82;;
57846;SDS011;43675;50.030;21.952;2022-10-04T18:30:56;20.80;;;18.67;;
57846;SDS011;43675;50.030;21.952;2022-10-04T18:34:00;18.95;;;17.30;;
57846;SDS011;43675;50.030;21.952;2022-10-04T18:36:02;19.65;;;17.55;;
57846;SDS011;43675;50.030;21.952;2022-10-04T18:38:39;19.55;;;17.62;;
57846;SDS011;43675;50.030;21.952;2022-10-04T18:41:22;19.62;;;17.73;;
57846;SDS011;43675;50.030;21.952;2022-10-04T18:43:50;20.10;;;18.12;;
57846;SDS011;43675;50.030;21.952;2022-10-04T18:46:22;23.02;;;17.98;;
57846;SDS011;43675;50.030;21.952;2022-10-04T18:48:52;20.02;;;17.73;;
57846;SDS011;43675;50.030;21.952;2022-10-04T18:51:27;20.82;;;18.77;;
57846;SDS011;43675;50.030;21.952;2022-10-04T18:54:01;20.10;;;18.20;;
57846;SDS011;43675;50.030;21.952;2022-10-04T18:57:31;21.33;;;17.90;;
57846;SDS011;43675;50.030;21.952;2022-10-04T19:02:22;20.15;;;18.25;;
57846;SDS011;43675;50.030;21.952;2022-10-04T19:05:00;21.93;;;18.82;;
57846;SDS011;43675;50.030;21.952;2022-10-04T19:07:39;21.45;;;18.48;;
57846;SDS011;43675;50.030;21.952;2022-10-04T19:24:46;20.92;;;19.02;;
57846;SDS011;43675;50.030;21.952;2022-10-04T19:27:14;22.48;;;20.40;;
57846;SDS011;43675;50.030;21.952;2022-10-04T19:29:50;24.37;;;20.62;;
57846;SDS011;43675;50.030;21.952;2022-10-04T19:38:23;21.95;;;19.62;;
57846;SDS011;43675;50.030;21.952;2022-10-04T19:43:58;22.98;;;20.88;;
57846;SDS011;43675;50.030;21.952;2022-10-04T19:46:33;24.10;;;20.12;;
57846;SDS011;43675;50.030;21.952;2022-10-04T19:49:00;24.43;;;19.90;;
57846;SDS011;43675;50.030;21.952;2022-10-04T19:54:11;21.75;;;19.52;;
57846;SDS011;43675;50.030;21.952;2022-10-04T19:56:42;21.75;;;19.60;;
57846;SDS011;43675;50.030;21.952;2022-10-04T19:59:16;21.60;;;19.35;;
57846;SDS011;43675;50.030;21.952;2022-10-04T20:01:45;21.05;;;18.85;;
57846;SDS011;43675;50.030;21.952;2022-10-04T20:04:15;20.23;;;18.35;;
57846;SDS011;43675;50.030;21.952;2022-10-04T20:06:48;23.32;;;18.98;;
57846;SDS011;43675;50.030;21.952;2022-10-04T20:12:04;24.57;;;22.13;;
57846;SDS011;43675;50.030;21.952;2022-10-04T20:34:55;24.80;;;22.25;;
57846;SDS011;43675;50.030;21.952;2022-10-04T20:38:12;28.42;;;23.22;;
57846;SDS011;43675;50.030;21.952;2022-10-04T20:42:38;25.80;;;22.52;;
57846;SDS011;43675;50.030;21.952;2022-10-04T20:47:40;25.17;;;22.60;;
57846;SDS011;43675;50.030;21.952;2022-10-04T20:52:52;28.65;;;22.17;;
57846;SDS011;43675;50.030;21.952;2022-10-04T20:55:27;24.02;;;21.50;;
57846;SDS011;43675;50.030;21.952;2022-10-04T20:57:57;24.07;;;21.52;;
57846;SDS011;43675;50.030;21.952;2022-10-04T21:00:25;23.77;;;21.12;;
57846;SDS011;43675;50.030;21.952;2022-10-04T21:03:08;24.82;;;21.15;;
57846;SDS011;43675;50.030;21.952;2022-10-04T21:05:36;23.07;;;20.93;;
57846;SDS011;43675;50.030;21.952;2022-10-04T21:08:12;23.32;;;20.20;;
57846;SDS011;43675;50.030;21.952;2022-10-04T21:10:39;22.00;;;20.00;;
57846;SDS011;43675;50.030;21.952;2022-10-04T21:13:36;22.58;;;20.45;;
57846;SDS011;43675;50.030;21.952;2022-10-04T21:15:38;22.40;;;20.37;;
57846;SDS011;43675;50.030;21.952;2022-10-04T21:18:07;21.95;;;19.95;;
57846;SDS011;43675;50.030;21.952;2022-10-04T21:20:43;22.22;;;20.10;;
57846;SDS011;43675;50.030;21.952;2022-10-04T21:25:51;24.00;;;19.80;;
57846;SDS011;43675;50.030;21.952;2022-10-04T21:28:21;20.95;;;19.07;;
57846;SDS011;43675;50.030;21.952;2022-10-04T21:30:49;22.58;;;20.25;;
57846;SDS011;43675;50.030;21.952;2022-10-04T21:33:14;21.65;;;19.50;;
57846;SDS011;43675;50.030;21.952;2022-10-04T21:35:40;21.50;;;19.50;;
57846;SDS011;43675;50.030;21.952;2022-10-04T21:38:05;20.72;;;18.82;;
57846;SDS011;43675;50.030;21.952;2022-10-04T21:40:31;21.55;;;19.55;;
57846;SDS011;43675;50.030;21.952;2022-10-04T21:43:03;21.12;;;19.20;;
57846;SDS011;43675;50.030;21.952;2022-10-04T21:45:34;21.73;;;19.67;;
57846;SDS011;43675;50.030;21.952;2022-10-04T21:48:00;22.48;;;20.20;;
57846;SDS011;43675;50.030;21.952;2022-10-04T21:50:26;22.55;;;20.55;;
57846;SDS011;43675;50.030;21.952;2022-10-04T21:52:51;24.07;;;21.55;;
57846;SDS011;43675;50.030;21.952;2022-10-04T21:55:17;25.05;;;21.33;;
57846;SDS011;43675;50.030;21.952;2022-10-04T21:57:42;26.48;;;22.00;;
57846;SDS011;43675;50.030;21.952;2022-10-04T22:00:08;23.20;;;21.02;;
57846;SDS011;43675;50.030;21.952;2022-10-04T22:02:35;23.32;;;20.95;;
57846;SDS011;43675;50.030;21.952;2022-10-04T22:05:00;23.77;;;21.40;;
57846;SDS011;43675;50.030;21.952;2022-10-04T22:07:26;24.40;;;21.82;;
57846;SDS011;43675;50.030;21.952;2022-10-04T22:09:52;24.80;;;22.45;;
57846;SDS011;43675;50.030;21.952;2022-10-04T22:12:17;24.40;;;22.30;;
57846;SDS011;43675;50.030;21.952;2022-10-04T22:14:43;23.60;;;21.25;;
57846;SDS011;43675;50.030;21.952;2022-10-04T22:17:15;24.20;;;21.90;;
57846;SDS011;43675;50.030;21.952;2022-10-04T22:19:41;24.20;;;21.75;;
57846;SDS011;43675;50.030;21.952;2022-10-04T22:22:11;24.90;;;22.45;;
57846;SDS011;43675;50.030;21.952;2022-10-04T22:24:40;24.37;;;21.97;;
57846;SDS011;43675;50.030;21.952;2022-10-04T22:27:14;28.17;;;21.90;;
57846;SDS011;43675;50.030;21.952;2022-10-04T22:29:38;24.65;;;22.25;;
57846;SDS011;43675;50.030;21.952;2022-10-04T22:32:05;23.35;;;21.12;;
57846;SDS011;43675;50.030;21.952;2022-10-04T22:34:35;24.10;;;21.80;;
57846;SDS011;43675;50.030;21.952;2022-10-04T22:37:01;23.52;;;21.30;;
57846;SDS011;43675;50.030;21.952;2022-10-04T22:39:33;24.12;;;21.55;;
57846;SDS011;43675;50.030;21.952;2022-10-04T22:41:59;24.98;;;22.55;;
57846;SDS011;43675;50.030;21.952;2022-10-04T22:44:35;25.00;;;22.55;;
57846;SDS011;43675;50.030;21.952;2022-10-04T22:47:12;24.10;;;21.75;;
57846;SDS011;43675;50.030;21.952;2022-10-04T22:49:43;24.95;;;22.62;;
57846;SDS011;43675;50.030;21.952;2022-10-04T22:52:20;23.60;;;21.55;;
57846;SDS011;43675;50.030;21.952;2022-10-04T22:54:49;25.00;;;22.35;;
57846;SDS011;43675;50.030;21.952;2022-10-04T22:57:17;24.47;;;22.22;;
57846;SDS011;43675;50.030;21.952;2022-10-04T22:59:45;24.47;;;22.20;;
57846;SDS011;43675;50.030;21.952;2022-10-04T23:02:16;25.75;;;23.05;;
57846;SDS011;43675;50.030;21.952;2022-10-04T23:04:48;27.90;;;24.92;;
57846;SDS011;43675;50.030;21.952;2022-10-04T23:07:17;27.32;;;25.00;;
57846;SDS011;43675;50.030;21.952;2022-10-04T23:09:43;29.10;;;26.15;;
57846;SDS011;43675;50.030;21.952;2022-10-04T23:12:09;28.98;;;26.25;;
57846;SDS011;43675;50.030;21.952;2022-10-04T23:14:36;30.17;;;26.82;;
57846;SDS011;43675;50.030;21.952;2022-10-04T23:17:10;29.18;;;26.35;;
57846;SDS011;43675;50.030;21.952;2022-10-04T23:19:37;29.90;;;27.40;;
57846;SDS011;43675;50.030;21.952;2022-10-04T23:22:07;30.95;;;27.85;;
57846;SDS011;43675;50.030;21.952;2022-10-04T23:24:32;32.03;;;28.77;;
57846;SDS011;43675;50.030;21.952;2022-10-04T23:26:58;31.65;;;28.50;;
57846;SDS011;43675;50.030;21.952;2022-10-04T23:29:25;32.48;;;29.32;;